createdAt,value
2023-01-08T00:04:29.569Z,26.13
2023-01-08T00:09:33.299Z,19.93
2023-01-08T00:14:35.510Z,16.83
2023-01-08T00:19:37.956Z,19.07
2023-01-08T00:24:41.199Z,21.77
2023-01-08T00:29:43.283Z,24.90
2023-01-08T00:34:45.224Z,20.40
2023-01-08T00:39:49.234Z,19.23
2023-01-08T00:44:51.231Z,25.77
2023-01-08T00:49:53.163Z,27.43
2023-01-08T00:54:56.791Z,25.10
2023-01-08T00:59:59.268Z,30.90
2023-01-08T01:05:01.433Z,27.60
2023-01-08T01:10:05.359Z,26.83
2023-01-08T01:15:09.739Z,23.27
2023-01-08T01:20:14.226Z,23.90
2023-01-08T01:25:18.098Z,22.40
2023-01-08T01:30:20.651Z,26.80
2023-01-08T01:35:22.808Z,20.03
2023-01-08T01:40:26.526Z,21.60
2023-01-08T01:45:29.144Z,21.10
2023-01-08T01:50:33.977Z,19.80
2023-01-08T01:55:39.634Z,24.80
2023-01-08T02:00:42.008Z,18.47
2023-01-08T02:05:52.086Z,17.73
2023-01-08T02:11:00.118Z,17.93
2023-01-08T02:16:10.402Z,19.67
2023-01-08T02:21:15.716Z,15.23
2023-01-08T02:26:25.058Z,15.77
2023-01-08T02:31:28.775Z,16.47
2023-01-08T02:36:37.079Z,16.30
2023-01-08T02:42:04.131Z,18.93
2023-01-08T02:47:09.695Z,16.50
2023-01-08T02:52:14.590Z,15.33
2023-01-08T02:57:20.396Z,15.33
2023-01-08T03:02:22.565Z,15.97
2023-01-08T03:07:24.888Z,20.50
2023-01-08T03:12:39.663Z,19.10
2023-01-08T03:17:45.098Z,19.90
2023-01-08T03:22:50.122Z,19.53
2023-01-08T03:27:57.386Z,17.57
2023-01-08T03:33:01.978Z,17.70
2023-01-08T03:38:09.421Z,18.93
2023-01-08T03:43:13.258Z,19.27
2023-01-08T03:48:15.693Z,18.50
2023-01-08T03:53:18.332Z,20.50
2023-01-08T03:58:22.015Z,13.00
2023-01-08T04:03:25.185Z,15.97
2023-01-08T04:08:27.257Z,11.93
2023-01-08T04:13:31.041Z,13.87
2023-01-08T04:18:33.193Z,12.03
2023-01-08T04:23:35.485Z,10.87
2023-01-08T04:28:39.283Z,9.47
2023-01-08T04:33:41.251Z,13.77
2023-01-08T04:38:43.812Z,10.03
2023-01-08T04:43:47.535Z,12.40
2023-01-08T04:48:49.544Z,9.23
2023-01-08T04:53:51.627Z,11.83
2023-01-08T04:58:55.313Z,9.90
2023-01-08T05:03:59.142Z,10.20
2023-01-08T05:09:01.708Z,12.50
2023-01-08T05:14:05.643Z,10.33
2023-01-08T05:19:07.959Z,12.53
2023-01-08T05:24:10.667Z,11.23
2023-01-08T05:29:13.951Z,10.03
2023-01-08T05:34:16.385Z,10.73
2023-01-08T05:39:18.673Z,11.20
2023-01-08T05:44:21.945Z,9.97
2023-01-08T05:49:24.189Z,13.37
2023-01-08T05:54:26.508Z,12.27
2023-01-08T06:04:57.023Z,13.83
2023-01-08T06:09:59.477Z,15.50
2023-01-08T06:15:02.894Z,13.60
2023-01-08T06:20:06.357Z,14.23
2023-01-08T06:25:09.017Z,14.00
2023-01-08T06:30:13.152Z,12.70
2023-01-08T06:35:15.096Z,12.57
2023-01-08T06:40:17.085Z,11.87
2023-01-08T06:45:20.615Z,12.60
2023-01-08T06:50:22.805Z,14.33
2023-01-08T06:55:26.048Z,15.77
2023-01-08T07:00:29.707Z,13.87
2023-01-08T07:05:32.414Z,13.23
2023-01-08T07:10:36.138Z,15.77
2023-01-08T07:15:39.931Z,19.87
2023-01-08T07:20:42.080Z,17.77
2023-01-08T07:25:44.562Z,24.50
2023-01-08T07:30:47.910Z,23.27
2023-01-08T07:35:53.879Z,23.57
2023-01-08T07:40:55.949Z,21.13
2023-01-08T07:45:59.572Z,16.10
2023-01-08T07:51:05.948Z,16.17
2023-01-08T07:56:10.103Z,14.67
2023-01-08T08:01:57.448Z,17.13
2023-01-08T08:07:05.625Z,18.37
2023-01-08T08:12:49.317Z,15.43
2023-01-08T08:17:53.283Z,18.27
2023-01-08T08:23:02.939Z,19.47
2023-01-08T08:28:06.191Z,14.13
2023-01-08T08:33:10.067Z,16.80
2023-01-08T08:38:12.282Z,16.97
2023-01-08T08:43:15.032Z,32.60
2023-01-08T08:48:18.574Z,17.77
2023-01-08T08:53:21.064Z,24.80
2023-01-08T08:58:23.531Z,16.13
2023-01-08T09:03:27.135Z,20.10
2023-01-08T09:08:29.289Z,19.50
2023-01-08T09:13:31.583Z,12.60
2023-01-08T09:18:35.308Z,13.30
2023-01-08T09:23:38.869Z,9.40
2023-01-08T09:28:40.827Z,6.97
2023-01-08T09:33:44.644Z,9.13
2023-01-08T09:38:47.065Z,12.23
2023-01-08T09:43:53.728Z,6.60
2023-01-08T09:49:00.986Z,9.67
2023-01-08T09:54:04.559Z,5.03
2023-01-08T09:59:07.275Z,8.20
2023-01-08T10:04:16.084Z,6.87
2023-01-08T10:09:18.833Z,8.33
2023-01-08T10:14:24.751Z,7.93
2023-01-08T10:19:28.506Z,10.90
2023-01-08T10:24:35.997Z,19.33
2023-01-08T10:29:40.007Z,18.87
2023-01-08T10:34:47.376Z,7.00
2023-01-08T10:39:50.867Z,6.63
2023-01-08T10:44:58.681Z,13.40
2023-01-08T10:50:04.498Z,15.43
2023-01-08T10:55:15.210Z,8.67
2023-01-08T11:00:28.986Z,10.43
2023-01-08T11:05:38.895Z,9.80
2023-01-08T11:10:41.344Z,18.07
2023-01-08T11:15:43.950Z,21.03
2023-01-08T11:20:48.248Z,9.43
2023-01-08T11:25:57.329Z,14.93
2023-01-08T11:31:12.083Z,18.87
2023-01-08T11:36:22.997Z,21.10
2023-01-08T11:41:44.212Z,26.87
2023-01-08T11:46:53.294Z,15.60
2023-01-08T11:52:20.660Z,20.53
2023-01-08T11:57:35.968Z,14.17
2023-01-08T12:02:54.370Z,17.87
2023-01-08T12:08:06.710Z,16.27
2023-01-08T12:13:21.863Z,14.13
2023-01-08T12:18:53.364Z,31.63
2023-01-08T12:24:12.839Z,17.03
2023-01-08T12:29:47.609Z,11.73
2023-01-08T12:34:55.841Z,12.83
2023-01-08T12:40:07.786Z,12.17
2023-01-08T12:45:18.357Z,14.30
2023-01-08T12:50:47.959Z,11.97
2023-01-08T12:56:01.262Z,12.90
2023-01-08T13:01:17.912Z,14.63
2023-01-08T13:06:22.191Z,10.03
2023-01-08T13:11:32.002Z,13.60
2023-01-08T13:16:42.177Z,11.17
2023-01-08T13:21:51.448Z,10.97
2023-01-08T13:26:55.524Z,10.03
2023-01-08T13:31:57.520Z,16.27
2023-01-08T13:37:00.684Z,15.40
2023-01-08T13:42:20.358Z,13.43
2023-01-08T13:47:31.163Z,9.20
2023-01-08T13:52:44.110Z,9.57
2023-01-08T13:57:53.033Z,9.60
2023-01-08T14:02:55.636Z,9.93
2023-01-08T14:07:59.155Z,13.67
2023-01-08T14:13:08.058Z,12.93
2023-01-08T14:18:12.554Z,13.00
2023-01-08T14:23:19.899Z,11.67
2023-01-08T14:28:24.522Z,11.93
2023-01-08T14:33:31.822Z,13.87
2023-01-08T14:38:34.069Z,12.67
2023-01-08T14:43:42.981Z,14.37
2023-01-08T14:48:46.984Z,12.03
2023-01-08T14:53:51.961Z,11.80
2023-01-08T14:58:58.348Z,13.73
2023-01-08T15:04:10.733Z,10.17
2023-01-08T15:09:23.520Z,11.00
2023-01-08T15:14:28.992Z,12.57
2023-01-08T15:19:36.328Z,11.07
2023-01-08T15:24:40.652Z,12.73
2023-01-08T15:29:50.134Z,12.30
2023-01-08T15:34:52.213Z,13.83
2023-01-08T15:39:54.159Z,14.27
2023-01-08T15:44:57.766Z,12.00
2023-01-08T15:50:00.891Z,15.60
2023-01-08T15:55:03.265Z,12.87
2023-01-08T16:00:08.408Z,18.97
2023-01-08T16:05:12.665Z,14.40
2023-01-08T16:10:15.809Z,13.00
2023-01-08T16:15:20.025Z,15.10
2023-01-08T16:20:22.903Z,12.57
2023-01-08T16:25:26.053Z,15.17
2023-01-08T16:30:30.891Z,22.97
2023-01-08T16:35:33.092Z,14.80
2023-01-08T16:40:36.407Z,18.07
2023-01-08T16:45:48.882Z,13.50
2023-01-08T16:50:52.388Z,18.43
2023-01-08T16:55:55.521Z,20.17
2023-01-08T17:01:00.010Z,19.03
2023-01-08T17:06:05.927Z,17.70
2023-01-08T17:11:11.412Z,20.50
2023-01-08T17:16:18.112Z,28.70
2023-01-08T17:21:21.032Z,26.93
2023-01-08T17:26:24.659Z,26.27
2023-01-08T17:31:28.705Z,25.07
2023-01-08T17:36:32.938Z,21.77
2023-01-08T17:41:54.869Z,22.37
2023-01-08T17:47:02.686Z,27.47
2023-01-08T17:52:05.885Z,35.30
2023-01-08T17:57:09.188Z,33.77
2023-01-08T18:02:16.289Z,37.07
2023-01-08T18:07:19.999Z,37.07
2023-01-08T18:12:22.905Z,33.23
2023-01-08T18:17:27.314Z,33.30
2023-01-08T18:22:29.841Z,28.67
2023-01-08T18:27:33.197Z,30.60
2023-01-08T18:32:38.409Z,29.93
2023-01-08T18:37:42.329Z,38.93
2023-01-08T18:42:44.933Z,34.47
2023-01-08T18:47:49.115Z,34.80
2023-01-08T18:52:52.980Z,32.93
2023-01-08T18:57:57.390Z,33.70
2023-01-08T19:03:03.199Z,31.97
2023-01-08T19:08:06.511Z,26.03
2023-01-08T19:13:12.855Z,23.70
2023-01-08T19:18:21.591Z,24.37
2023-01-08T19:23:25.799Z,17.67
2023-01-08T19:28:29.071Z,17.23
2023-01-08T19:33:34.483Z,22.10
2023-01-08T19:38:38.348Z,22.13
2023-01-08T19:43:44.326Z,18.73
2023-01-08T19:48:49.828Z,22.20
2023-01-08T19:53:53.685Z,21.87
2023-01-08T19:58:59.141Z,21.50
2023-01-08T20:04:04.669Z,22.70
2023-01-08T20:09:09.644Z,21.03
2023-01-08T20:14:14.965Z,16.80
2023-01-08T20:19:21.037Z,23.50
2023-01-08T20:24:24.086Z,33.50
2023-01-08T20:29:28.032Z,29.50
2023-01-08T20:34:33.565Z,25.37
2023-01-08T20:39:36.611Z,22.77
2023-01-08T20:44:40.433Z,23.33
2023-01-08T20:49:45.618Z,25.20
2023-01-08T20:54:49.016Z,25.07
2023-01-08T20:59:51.435Z,28.00
2023-01-08T21:04:55.955Z,27.27
2023-01-08T21:09:57.937Z,29.40
2023-01-08T21:15:00.274Z,28.07
2023-01-08T21:20:04.851Z,27.93
2023-01-08T21:25:08.372Z,30.27
2023-01-08T21:30:12.143Z,29.30
2023-01-08T21:35:16.012Z,26.50
2023-01-08T21:40:18.910Z,31.57
2023-01-08T21:45:27.641Z,31.13
2023-01-08T21:50:32.647Z,33.17
2023-01-08T21:55:35.192Z,29.80
2023-01-08T22:00:38.345Z,27.50
2023-01-08T22:05:42.074Z,26.67
2023-01-08T22:10:44.293Z,29.30
2023-01-08T22:15:46.424Z,29.50
2023-01-08T22:20:50.239Z,29.63
2023-01-08T22:25:52.225Z,27.37
2023-01-08T22:30:54.431Z,25.77
2023-01-08T22:35:57.975Z,28.27
2023-01-08T22:41:00.179Z,25.90
2023-01-08T22:46:02.504Z,28.03
2023-01-08T22:51:06.582Z,27.77
2023-01-08T22:56:12.480Z,28.37
2023-01-08T23:01:16.735Z,28.23
2023-01-08T23:06:21.774Z,31.93
2023-01-08T23:11:24.970Z,28.67
2023-01-08T23:16:27.444Z,31.30
2023-01-08T23:21:31.251Z,40.10
2023-01-08T23:26:33.498Z,32.73
2023-01-08T23:31:37.876Z,31.67
2023-01-08T23:36:43.102Z,37.57
2023-01-08T23:41:45.745Z,37.97
2023-01-08T23:46:47.759Z,38.07
2023-01-08T23:51:51.535Z,37.27
2023-01-08T23:56:53.835Z,40.90
